Terminal Aerodrome Forecast
Issued by NWS Cleveland, OH

Home | Current Version | Previous Version | Graphics & Text | Print | Product List | Glossary On
Versions: 1 2 3 4 5 6 7 8 9 10 11 12 13 14 15 16 17 18 19 20 21 22 23 24 25
000
FTUS41 KCLE 222300
TAFMFD
TAF
KMFD 222337Z 2300/2324 11008KT P6SM SCT040 OVC120
     FM230700 14012KT 4SM -SHRA BR SCT015 OVC025
      TEMPO 2310/2314 2SM -SHRA SCT004 OVC008
     FM231400 16012G20KT 3SM -DZ BR OVC004
     FM231800 18012KT P6SM SCT006 OVC012=

USA.gov is the U.S. government's official web portal to all federal, state and local government web resources and services.